createdAt,value
2018-11-11T00:01:29.061Z,73.50
2018-11-11T00:03:57.214Z,73.90
2018-11-11T00:06:25.405Z,74.70
2018-11-11T00:08:53.612Z,74.30
2018-11-11T00:11:21.780Z,75.40
2018-11-11T00:13:49.958Z,75.50
2018-11-11T00:16:18.149Z,75.40
2018-11-11T00:18:46.366Z,75.70
2018-11-11T00:21:14.525Z,75.90
2018-11-11T00:23:42.686Z,75.90
2018-11-11T00:26:10.857Z,75.90
2018-11-11T00:28:39.122Z,76.00
2018-11-11T00:31:07.198Z,75.90
2018-11-11T00:33:35.345Z,75.90
2018-11-11T00:36:03.518Z,75.90
2018-11-11T00:38:31.682Z,74.90
2018-11-11T00:40:59.874Z,75.20
2018-11-11T00:43:28.040Z,75.40
2018-11-11T00:45:56.206Z,75.70
2018-11-11T00:48:24.397Z,75.70
2018-11-11T00:50:53.329Z,75.70
2018-11-11T00:53:21.851Z,75.60
2018-11-11T00:55:50.002Z,75.70
2018-11-11T00:58:18.241Z,75.00
2018-11-11T01:00:46.393Z,74.80
2018-11-11T01:03:14.582Z,74.40
2018-11-11T01:05:42.758Z,75.00
2018-11-11T01:08:10.873Z,74.00
2018-11-11T01:10:39.034Z,73.70
2018-11-11T01:13:07.194Z,73.50
2018-11-11T01:15:35.337Z,73.00
2018-11-11T01:18:03.516Z,73.20
2018-11-11T01:20:31.781Z,73.70
2018-11-11T01:22:59.965Z,73.70
2018-11-11T01:25:28.181Z,73.10
2018-11-11T01:27:56.341Z,71.90
2018-11-11T01:30:24.505Z,71.40
2018-11-11T01:32:52.641Z,71.20
2018-11-11T01:35:20.830Z,70.80
2018-11-11T01:37:48.984Z,70.50
2018-11-11T01:40:17.188Z,69.80
2018-11-11T01:42:45.404Z,70.00
2018-11-11T01:45:19.381Z,69.70
2018-11-11T01:47:48.385Z,69.40
2018-11-11T01:50:16.829Z,68.70
2018-11-11T01:52:45.006Z,67.80
2018-11-11T01:55:13.687Z,68.30
2018-11-11T01:57:41.892Z,67.50
2018-11-11T02:00:14.253Z,66.10
2018-11-11T02:02:42.937Z,68.30
2018-11-11T02:05:12.129Z,68.20
2018-11-11T02:07:41.010Z,69.50
2018-11-11T02:10:10.011Z,70.40
2018-11-11T02:12:39.109Z,70.60
2018-11-11T02:15:07.993Z,70.80
2018-11-11T02:17:36.204Z,71.20
2018-11-11T02:20:05.005Z,71.80
2018-11-11T02:22:33.212Z,71.90
2018-11-11T02:25:01.342Z,72.00
2018-11-11T02:27:29.517Z,72.50
2018-11-11T02:29:57.735Z,71.70
2018-11-11T02:32:25.909Z,71.90
2018-11-11T02:34:54.110Z,71.40
2018-11-11T02:37:22.288Z,71.00
2018-11-11T02:39:50.481Z,71.00
2018-11-11T02:42:18.660Z,70.40
2018-11-11T02:44:46.832Z,69.80
2018-11-11T02:47:15.035Z,68.70
2018-11-11T02:49:43.209Z,67.10
2018-11-11T02:52:11.378Z,66.60
2018-11-11T02:54:39.541Z,65.60
2018-11-11T02:57:07.714Z,64.70
2018-11-11T02:59:35.939Z,64.70
2018-11-11T03:02:04.111Z,64.10
2018-11-11T03:04:32.307Z,64.00
2018-11-11T03:07:00.450Z,63.60
2018-11-11T03:09:28.625Z,62.60
2018-11-11T03:11:57.390Z,63.40
2018-11-11T03:14:25.518Z,63.80
2018-11-11T03:16:53.687Z,64.50
2018-11-11T03:19:21.841Z,64.50
2018-11-11T03:21:50.035Z,62.90
2018-11-11T03:24:18.193Z,62.80
2018-11-11T03:26:46.400Z,63.00
2018-11-11T03:31:44.669Z,63.50
2018-11-11T03:34:13.137Z,62.20
2018-11-11T03:36:41.321Z,62.20
2018-11-11T03:39:10.118Z,62.60
2018-11-11T03:41:38.865Z,62.20
2018-11-11T03:44:07.103Z,61.70
2018-11-11T03:46:35.298Z,61.80
2018-11-11T03:49:03.502Z,62.40
2018-11-11T03:51:31.665Z,63.40
2018-11-11T03:54:00.052Z,64.00
2018-11-11T03:56:28.213Z,62.50
2018-11-11T03:58:56.443Z,60.00
2018-11-11T04:01:24.550Z,60.40
2018-11-11T04:03:52.703Z,61.30
2018-11-11T04:06:20.918Z,61.80
2018-11-11T04:08:49.077Z,63.60
2018-11-11T04:11:17.970Z,63.40
2018-11-11T04:13:46.154Z,64.20
2018-11-11T04:16:14.329Z,64.10
2018-11-11T04:18:42.505Z,64.90
2018-11-11T04:21:10.711Z,65.10
2018-11-11T04:23:38.882Z,67.00
2018-11-11T04:26:07.013Z,69.30
2018-11-11T04:28:35.151Z,70.80
2018-11-11T04:31:03.402Z,69.60
2018-11-11T04:33:31.563Z,70.50
2018-11-11T04:35:59.772Z,72.40
2018-11-11T04:38:27.943Z,72.80
2018-11-11T04:40:56.149Z,72.90
2018-11-11T04:43:24.293Z,72.90
2018-11-11T04:45:52.423Z,72.70
2018-11-11T04:48:20.613Z,72.90
2018-11-11T04:50:48.791Z,73.00
2018-11-11T04:53:16.985Z,72.90
2018-11-11T04:55:45.148Z,72.40
2018-11-11T04:58:14.353Z,72.20
2018-11-11T05:00:42.526Z,73.00
2018-11-11T05:03:10.717Z,72.10
2018-11-11T05:05:39.630Z,72.10
2018-11-11T05:08:07.799Z,71.70
2018-11-11T05:10:35.973Z,71.40
2018-11-11T05:13:04.389Z,71.10
2018-11-11T05:15:32.616Z,71.20
2018-11-11T05:18:00.814Z,70.80
2018-11-11T05:20:28.968Z,70.60
2018-11-11T05:22:57.143Z,70.20
2018-11-11T05:25:25.334Z,70.20
2018-11-11T05:27:53.485Z,70.10
2018-11-11T05:30:21.682Z,69.70
2018-11-11T05:32:50.722Z,69.50
2018-11-11T05:35:18.875Z,69.90
2018-11-11T05:37:47.035Z,70.20
2018-11-11T05:40:15.197Z,70.80
2018-11-11T05:42:44.054Z,71.50
2018-11-11T05:45:13.455Z,71.30
2018-11-11T05:47:42.234Z,72.10
2018-11-11T05:50:12.489Z,73.00
2018-11-11T05:52:40.944Z,73.00
2018-11-11T05:55:09.509Z,73.00
2018-11-11T05:57:37.809Z,73.00
2018-11-11T06:00:07.825Z,73.10
2018-11-11T06:02:36.009Z,72.10
2018-11-11T06:05:04.569Z,72.30
2018-11-11T06:07:32.710Z,72.10
2018-11-11T06:10:00.875Z,71.80
2018-11-11T06:12:29.093Z,72.30
2018-11-11T06:14:57.245Z,71.90
2018-11-11T06:17:25.465Z,72.00
2018-11-11T06:19:53.617Z,72.30
2018-11-11T06:22:21.801Z,71.80
2018-11-11T06:24:50.022Z,72.10
2018-11-11T06:27:18.166Z,72.40
2018-11-11T06:29:46.337Z,72.00
2018-11-11T06:32:14.517Z,71.40
2018-11-11T06:34:42.715Z,70.10
2018-11-11T06:37:10.866Z,69.30
2018-11-11T06:39:39.037Z,68.50
2018-11-11T06:42:07.203Z,67.30
2018-11-11T06:44:35.341Z,66.60
2018-11-11T06:47:03.531Z,65.60
2018-11-11T06:49:31.681Z,66.60
2018-11-11T06:51:59.876Z,67.50
2018-11-11T06:54:28.050Z,68.30
2018-11-11T06:56:56.218Z,68.40
2018-11-11T06:59:24.728Z,67.80
2018-11-11T07:01:53.221Z,67.80
2018-11-11T07:04:21.390Z,66.40
2018-11-11T07:06:49.536Z,65.60
2018-11-11T07:09:17.725Z,65.70
2018-11-11T07:11:45.901Z,65.50
2018-11-11T07:14:14.221Z,65.10
2018-11-11T07:16:42.322Z,64.20
2018-11-11T07:19:10.517Z,64.60
2018-11-11T07:21:38.893Z,64.20
2018-11-11T07:24:07.188Z,64.20
2018-11-11T07:26:35.377Z,64.30
2018-11-11T07:29:03.741Z,64.30
2018-11-11T07:31:31.958Z,65.30
2018-11-11T07:34:00.052Z,65.00
2018-11-11T07:36:28.166Z,65.10
2018-11-11T07:38:56.318Z,64.40
2018-11-11T07:41:24.482Z,64.30
2018-11-11T07:43:52.646Z,64.90
2018-11-11T07:46:20.838Z,65.50
2018-11-11T07:48:49.009Z,65.50
2018-11-11T07:51:17.178Z,66.70
2018-11-11T07:53:45.302Z,65.90
2018-11-11T07:56:13.539Z,65.60
2018-11-11T07:58:41.754Z,65.50
2018-11-11T08:01:09.913Z,66.30
2018-11-11T08:03:38.057Z,65.10
2018-11-11T08:06:06.252Z,64.50
2018-11-11T08:08:34.419Z,65.60
2018-11-11T08:11:13.892Z,65.30
2018-11-11T08:13:41.967Z,65.70
2018-11-11T08:16:10.171Z,66.50
2018-11-11T08:18:38.320Z,66.20
2018-11-11T08:21:06.478Z,66.90
2018-11-11T08:23:34.732Z,68.10
2018-11-11T08:26:02.885Z,67.80
2018-11-11T08:28:31.109Z,66.80
2018-11-11T08:30:59.270Z,65.80
2018-11-11T08:33:27.577Z,64.10
2018-11-11T08:35:55.936Z,64.80
2018-11-11T08:38:24.113Z,64.80
2018-11-11T08:40:52.283Z,63.50
2018-11-11T08:43:20.455Z,62.80
2018-11-11T08:45:48.600Z,62.10
2018-11-11T08:48:16.791Z,60.50
2018-11-11T08:50:44.942Z,60.40
2018-11-11T08:53:13.156Z,62.10
2018-11-11T08:55:41.316Z,62.90
2018-11-11T08:58:09.621Z,61.40
2018-11-11T09:00:37.727Z,59.90
2018-11-11T09:03:06.390Z,60.20
2018-11-11T09:05:34.527Z,57.60
2018-11-11T09:08:02.670Z,57.60
2018-11-11T09:10:30.821Z,56.90
2018-11-11T09:12:58.978Z,57.50
2018-11-11T09:15:27.164Z,57.60
2018-11-11T09:17:55.308Z,57.10
2018-11-11T09:20:23.605Z,55.30
2018-11-11T09:22:51.811Z,56.20
2018-11-11T09:25:20.039Z,54.70
2018-11-11T09:27:48.114Z,54.70
2018-11-11T09:30:16.303Z,53.40
2018-11-11T09:32:44.503Z,52.10
2018-11-11T09:35:12.646Z,51.80
2018-11-11T09:37:40.973Z,51.00
2018-11-11T09:40:10.151Z,49.50
2018-11-11T09:42:38.413Z,50.20
2018-11-11T09:45:08.775Z,51.00
2018-11-11T09:47:36.975Z,51.40
2018-11-11T09:50:07.479Z,52.30
2018-11-11T09:52:35.679Z,50.60
2018-11-11T09:55:03.741Z,50.70
2018-11-11T09:57:31.944Z,48.90
2018-11-11T10:00:00.271Z,50.90
2018-11-11T10:02:28.258Z,50.00
2018-11-11T10:05:00.035Z,48.60
2018-11-11T10:08:04.399Z,49.10
2018-11-11T10:10:36.077Z,48.70
2018-11-11T10:13:08.994Z,47.20
2018-11-11T10:15:45.214Z,43.90
2018-11-11T10:20:26.248Z,45.00
2018-11-11T10:23:01.639Z,45.70
2018-11-11T10:25:35.078Z,43.70
2018-11-11T10:28:09.889Z,42.00
2018-11-11T10:30:46.486Z,41.70
2018-11-11T10:33:24.664Z,41.60
2018-11-11T10:35:57.937Z,41.60
2018-11-11T10:38:37.557Z,38.80
2018-11-11T10:41:11.357Z,39.80
2018-11-11T10:43:44.532Z,40.70
2018-11-11T10:46:21.409Z,39.50
2018-11-11T10:48:53.117Z,37.30
2018-11-11T10:51:21.277Z,35.80
2018-11-11T10:53:50.625Z,36.70
2018-11-11T10:56:18.751Z,36.00
2018-11-11T10:58:46.892Z,34.40
2018-11-11T11:01:20.486Z,33.60
2018-11-11T11:03:48.633Z,32.50
2018-11-11T11:06:16.778Z,32.60
2018-11-11T11:08:50.510Z,32.70
2018-11-11T11:11:18.658Z,29.90
2018-11-11T11:13:46.885Z,29.60
2018-11-11T11:16:14.983Z,31.10
2018-11-11T11:18:43.083Z,32.00
2018-11-11T11:21:11.242Z,28.80
2018-11-11T11:23:39.389Z,28.50
2018-11-11T11:26:07.529Z,27.80
2018-11-11T11:28:35.697Z,28.20
2018-11-11T11:31:03.837Z,28.10
2018-11-11T11:33:32.001Z,28.60
2018-11-11T11:36:00.135Z,26.70
2018-11-11T11:38:28.428Z,27.20
2018-11-11T11:40:56.510Z,26.20
2018-11-11T11:43:24.682Z,26.60
2018-11-11T11:45:54.164Z,24.10
2018-11-11T11:48:22.514Z,24.50
2018-11-11T11:50:50.925Z,25.20
2018-11-11T11:53:19.076Z,25.10
2018-11-11T11:55:47.229Z,25.30
2018-11-11T11:58:20.313Z,25.00
2018-11-11T12:00:48.500Z,23.80
2018-11-11T12:03:16.741Z,23.70
2018-11-11T12:05:45.537Z,24.00
2018-11-11T12:08:13.760Z,23.00
2018-11-11T12:10:42.061Z,23.40
2018-11-11T12:13:11.301Z,22.10
2018-11-11T12:15:40.155Z,20.50
2018-11-11T12:18:08.341Z,20.80
2018-11-11T12:20:37.109Z,21.30
2018-11-11T12:23:05.948Z,20.80
2018-11-11T12:25:34.277Z,21.60
2018-11-11T12:28:02.454Z,20.00
2018-11-11T12:30:30.761Z,19.60
2018-11-11T12:32:59.014Z,19.90
2018-11-11T12:35:27.180Z,20.10
2018-11-11T12:37:55.336Z,19.60
2018-11-11T12:40:23.605Z,18.90
2018-11-11T12:42:51.628Z,19.50
2018-11-11T12:45:19.805Z,20.50
2018-11-11T12:47:48.027Z,21.30
2018-11-11T12:50:16.242Z,19.50
2018-11-11T12:52:44.377Z,19.30
2018-11-11T12:55:12.580Z,19.90
2018-11-11T12:57:40.819Z,19.60
2018-11-11T13:00:11.893Z,18.80
2018-11-11T13:02:40.194Z,18.80
2018-11-11T13:05:09.053Z,18.00
2018-11-11T13:07:37.270Z,18.40
2018-11-11T13:10:08.277Z,17.50
2018-11-11T13:12:36.422Z,16.20
2018-11-11T13:15:05.125Z,16.00
2018-11-11T13:17:33.276Z,14.00
2018-11-11T13:20:01.740Z,13.70
2018-11-11T13:22:30.616Z,12.30
2018-11-11T13:24:58.695Z,12.90
2018-11-11T13:27:26.880Z,13.30
2018-11-11T13:29:55.169Z,12.60
2018-11-11T13:32:23.337Z,11.90
2018-11-11T13:34:51.518Z,11.80
2018-11-11T13:37:19.697Z,12.10
2018-11-11T13:39:47.873Z,10.90
2018-11-11T13:42:16.041Z,11.70
2018-11-11T13:44:44.226Z,12.50
2018-11-11T13:47:12.409Z,13.20
2018-11-11T13:49:40.601Z,13.60
2018-11-11T13:52:08.822Z,14.00
2018-11-11T13:54:37.247Z,14.00
2018-11-11T13:57:07.578Z,13.70
2018-11-11T13:59:35.764Z,13.50
2018-11-11T14:02:04.077Z,14.10
2018-11-11T14:04:32.289Z,14.40
2018-11-11T14:07:00.457Z,14.90
2018-11-11T14:09:28.598Z,15.00
2018-11-11T14:11:56.790Z,15.80
2018-11-11T14:14:24.977Z,16.90
2018-11-11T14:16:53.106Z,16.90
2018-11-11T14:19:21.574Z,16.40
2018-11-11T14:21:50.946Z,17.40
2018-11-11T14:24:19.092Z,16.90
2018-11-11T14:26:47.346Z,17.20
2018-11-11T14:29:16.653Z,17.00
2018-11-11T14:31:44.841Z,16.70
2018-11-11T14:34:12.978Z,17.00
2018-11-11T14:36:41.177Z,16.90
2018-11-11T14:39:11.922Z,17.40
2018-11-11T14:41:40.714Z,17.40
2018-11-11T14:44:09.099Z,17.20
2018-11-11T14:46:37.557Z,16.80
2018-11-11T14:49:06.440Z,16.60
2018-11-11T14:51:34.577Z,16.80
2018-11-11T14:54:03.018Z,17.40
2018-11-11T14:56:31.265Z,17.20
2018-11-11T14:58:59.858Z,17.00
2018-11-11T15:01:28.003Z,17.10
2018-11-11T15:03:56.130Z,16.70
2018-11-11T15:06:24.277Z,16.60
2018-11-11T15:08:52.520Z,17.30
2018-11-11T15:11:20.662Z,17.40
2018-11-11T15:13:48.823Z,17.70
2018-11-11T15:16:17.021Z,18.10
2018-11-11T15:18:45.209Z,18.10
2018-11-11T15:21:15.166Z,18.30
2018-11-11T15:23:46.003Z,18.80
2018-11-11T15:26:16.217Z,19.20
2018-11-11T15:28:44.490Z,20.50
2018-11-11T15:31:12.710Z,20.30
2018-11-11T15:33:41.214Z,20.50
2018-11-11T15:36:12.456Z,20.70
2018-11-11T15:38:40.576Z,21.10
2018-11-11T15:41:08.794Z,21.10
2018-11-11T15:43:36.942Z,21.10
2018-11-11T15:46:05.107Z,21.00
2018-11-11T15:48:33.272Z,21.50
2018-11-11T15:51:01.466Z,21.90
2018-11-11T15:53:29.861Z,22.20
2018-11-11T15:55:58.031Z,22.30
2018-11-11T15:58:26.382Z,22.10
2018-11-11T16:00:54.490Z,22.00
2018-11-11T16:03:22.714Z,22.00
2018-11-11T16:05:50.882Z,22.10
2018-11-11T16:08:19.139Z,22.00
2018-11-11T16:10:47.413Z,22.10
2018-11-11T16:13:15.740Z,22.20
2018-11-11T16:15:43.909Z,22.50
2018-11-11T16:18:13.189Z,22.30
2018-11-11T16:20:42.145Z,23.00
2018-11-11T16:23:10.855Z,23.00
2018-11-11T16:25:39.085Z,23.10
2018-11-11T16:28:07.502Z,23.30
2018-11-11T16:30:36.856Z,23.70
2018-11-11T16:33:06.158Z,24.00
2018-11-11T16:35:34.306Z,24.00
2018-11-11T16:38:02.756Z,24.40
2018-11-11T16:40:33.289Z,24.60
2018-11-11T16:43:01.572Z,24.60
2018-11-11T16:45:30.761Z,24.90
2018-11-11T16:47:58.988Z,25.10
2018-11-11T16:50:30.758Z,25.20
2018-11-11T16:53:00.456Z,25.40
2018-11-11T16:55:29.738Z,25.70
2018-11-11T16:57:57.867Z,25.80
2018-11-11T17:00:27.363Z,25.80
2018-11-11T17:02:56.168Z,26.00
2018-11-11T17:05:25.589Z,26.00
2018-11-11T17:07:54.105Z,25.90
2018-11-11T17:10:27.542Z,26.30
2018-11-11T17:12:56.833Z,26.70
2018-11-11T17:15:26.365Z,27.00
2018-11-11T17:17:54.529Z,27.10
2018-11-11T17:20:23.632Z,27.30
2018-11-11T17:22:52.412Z,27.80
2018-11-11T17:25:21.541Z,28.20
2018-11-11T17:27:49.977Z,28.20
2018-11-11T17:30:22.561Z,28.30
2018-11-11T17:32:51.282Z,28.40
2018-11-11T17:35:19.493Z,28.50
2018-11-11T17:37:47.752Z,28.30
2018-11-11T17:40:18.317Z,28.60
2018-11-11T17:42:47.626Z,28.60
2018-11-11T17:45:16.104Z,28.80
2018-11-11T17:47:44.889Z,29.00
2018-11-11T17:50:17.180Z,29.20
2018-11-11T17:52:45.393Z,29.10
2018-11-11T17:55:14.982Z,29.10
2018-11-11T17:57:44.138Z,29.10
2018-11-11T18:00:14.789Z,29.20
2018-11-11T18:02:43.143Z,29.40
2018-11-11T18:05:12.247Z,29.50
2018-11-11T18:07:40.951Z,29.50
2018-11-11T18:10:11.029Z,29.70
2018-11-11T18:12:39.214Z,29.50
2018-11-11T18:15:08.502Z,29.50
2018-11-11T18:17:36.705Z,29.70
2018-11-11T18:20:07.528Z,29.60
2018-11-11T18:22:35.631Z,29.40
2018-11-11T18:25:04.086Z,29.50
2018-11-11T18:27:32.430Z,29.70
2018-11-11T18:30:00.479Z,29.90
2018-11-11T18:32:28.642Z,29.70
2018-11-11T18:34:56.812Z,29.50
2018-11-11T18:37:25.106Z,30.00
2018-11-11T18:39:53.317Z,30.10
2018-11-11T18:42:21.475Z,30.00
2018-11-11T18:44:49.667Z,30.70
2018-11-11T18:47:17.837Z,30.30
2018-11-11T18:49:45.968Z,30.50
2018-11-11T18:52:14.190Z,31.00
2018-11-11T18:54:42.371Z,31.40
2018-11-11T18:57:10.656Z,31.50
2018-11-11T18:59:38.707Z,31.40
2018-11-11T19:02:06.874Z,31.50
2018-11-11T19:04:34.986Z,31.60
2018-11-11T19:07:03.160Z,31.60
2018-11-11T19:09:31.322Z,32.00
2018-11-11T19:11:59.730Z,32.30
2018-11-11T19:14:27.877Z,32.50
2018-11-11T19:16:56.030Z,32.60
2018-11-11T19:19:24.219Z,32.80
2018-11-11T19:21:52.389Z,33.10
2018-11-11T19:24:20.635Z,33.40
2018-11-11T19:26:48.714Z,33.80
2018-11-11T19:29:16.869Z,34.20
2018-11-11T19:31:45.078Z,34.70
2018-11-11T19:34:13.242Z,34.90
2018-11-11T19:36:41.526Z,35.50
2018-11-11T19:39:11.482Z,35.70
2018-11-11T19:41:40.529Z,36.30
2018-11-11T19:44:09.321Z,36.30
2018-11-11T19:46:37.511Z,36.80
2018-11-11T19:49:06.057Z,36.40
2018-11-11T19:51:34.347Z,36.80
2018-11-11T19:54:02.946Z,37.20
2018-11-11T19:56:31.226Z,38.00
2018-11-11T19:58:59.382Z,38.00
2018-11-11T20:01:27.608Z,38.40
2018-11-11T20:03:55.785Z,39.40
2018-11-11T20:06:23.961Z,39.40
2018-11-11T20:08:52.118Z,39.60
2018-11-11T20:11:20.287Z,40.10
2018-11-11T20:13:48.472Z,40.80
2018-11-11T20:16:16.658Z,41.00
2018-11-11T20:18:44.853Z,41.40
2018-11-11T20:21:13.046Z,42.10
2018-11-11T20:23:41.242Z,42.70
2018-11-11T20:26:09.353Z,43.00
2018-11-11T20:28:37.549Z,43.60
2018-11-11T20:31:05.722Z,44.50
2018-11-11T20:33:33.931Z,45.40
2018-11-11T20:36:02.155Z,46.00
2018-11-11T20:38:30.271Z,46.40
2018-11-11T20:40:58.479Z,46.40
2018-11-11T20:43:26.753Z,46.40
2018-11-11T20:45:54.816Z,47.30
2018-11-11T20:48:23.246Z,47.30
2018-11-11T20:50:51.457Z,47.40
2018-11-11T20:53:19.635Z,47.30
2018-11-11T20:55:47.893Z,47.40
2018-11-11T20:58:15.993Z,47.40
2018-11-11T21:00:44.223Z,47.20
2018-11-11T21:03:12.405Z,47.00
2018-11-11T21:05:40.568Z,47.10
2018-11-11T21:08:08.793Z,46.10
2018-11-11T21:10:37.257Z,45.70
2018-11-11T21:13:05.581Z,45.20
2018-11-11T21:15:33.767Z,45.10
2018-11-11T21:18:01.949Z,44.70
2018-11-11T21:20:31.414Z,44.80
2018-11-11T21:22:59.633Z,44.90
2018-11-11T21:25:27.845Z,44.80
2018-11-11T21:27:55.993Z,45.20
2018-11-11T21:30:25.441Z,44.90
2018-11-11T21:32:53.605Z,44.90
2018-11-11T21:35:21.773Z,44.80
2018-11-11T21:37:50.036Z,44.50
2018-11-11T21:40:19.465Z,44.30
2018-11-11T21:42:48.589Z,43.60
2018-11-11T21:45:18.066Z,43.20
2018-11-11T21:47:46.437Z,43.20
2018-11-11T21:50:18.933Z,43.10
2018-11-11T21:52:53.590Z,43.20
2018-11-11T21:55:21.818Z,43.50
2018-11-11T21:57:49.954Z,43.40
2018-11-11T22:00:18.085Z,43.00
2018-11-11T22:02:46.269Z,43.00
2018-11-11T22:05:14.425Z,42.80
2018-11-11T22:07:42.594Z,43.10
2018-11-11T22:10:13.442Z,42.90
2018-11-11T22:12:41.666Z,43.00
2018-11-11T22:15:11.006Z,42.80
2018-11-11T22:17:39.194Z,42.20
2018-11-11T22:20:08.363Z,42.10
2018-11-11T22:22:36.541Z,41.90
2018-11-11T22:25:05.025Z,42.30
2018-11-11T22:27:33.227Z,42.10
2018-11-11T22:30:01.370Z,41.60
2018-11-11T22:32:29.590Z,41.30
2018-11-11T22:34:57.745Z,41.50
2018-11-11T22:37:25.918Z,41.50
2018-11-11T22:39:54.169Z,41.80
2018-11-11T22:42:22.384Z,41.60
2018-11-11T22:44:50.465Z,41.50
2018-11-11T22:47:18.699Z,41.20
2018-11-11T22:49:46.874Z,41.40
2018-11-11T22:52:15.018Z,41.50
2018-11-11T22:54:43.165Z,41.20
2018-11-11T22:57:12.026Z,41.20
2018-11-11T22:59:40.198Z,41.50
2018-11-11T23:02:08.377Z,41.40
2018-11-11T23:04:36.571Z,41.50
2018-11-11T23:07:04.777Z,42.20
2018-11-11T23:09:33.053Z,42.60
2018-11-11T23:12:01.229Z,43.20
2018-11-11T23:14:29.390Z,42.60
2018-11-11T23:16:58.199Z,42.50
2018-11-11T23:19:26.371Z,42.00
2018-11-11T23:21:54.533Z,42.80
2018-11-11T23:24:22.734Z,43.10
2018-11-11T23:26:50.875Z,43.50
2018-11-11T23:29:19.685Z,42.80
2018-11-11T23:31:47.884Z,43.00
2018-11-11T23:34:16.282Z,43.70
2018-11-11T23:36:44.456Z,44.20
2018-11-11T23:39:12.606Z,44.40
2018-11-11T23:41:40.761Z,44.30
2018-11-11T23:44:09.487Z,44.30
2018-11-11T23:46:38.327Z,44.90
2018-11-11T23:49:06.726Z,45.70
2018-11-11T23:51:35.084Z,46.70
2018-11-11T23:54:03.229Z,47.00
2018-11-11T23:56:31.429Z,47.00
2018-11-11T23:58:59.631Z,47.80
